Time;durP1;ratioP1;P1;durP2;ratioP2;P2;SDS_P1;SDS_P2;PMS_P1;PMS_P2;Temp;Humidity;BMP_temperature;BMP_pressure;BME280_temperature;BME280_humidity;BME280_pressure;Samples;Min_cycle;Max_cycle;Signal;HPM_P1;HPM_P2
2023/03/22 00:00:05;;;;;;;28.75;9.52;;;;;;;9.26;100.00;101013.94;5210956;28;20093;-79
2023/03/22 00:02:35;;;;;;;23.65;9.43;;;;;;;9.29;100.00;101006.44;5211460;28;20076;-79
2023/03/22 00:05:06;;;;;;;24.80;10.30;;;;;;;9.37;100.00;100999.47;5212133;28;20022;-79
2023/03/22 00:07:39;;;;;;;25.00;10.02;;;;;;;9.37;100.00;100999.47;5211988;28;20022;-79
2023/03/22 00:10:10;;;;;;;34.97;13.73;;;;;;;9.43;100.00;100990.81;5212006;28;20493;-79
2023/03/22 00:12:41;;;;;;;24.85;10.30;;;;;;;9.43;100.00;100998.84;5212110;28;20018;-80
2023/03/22 00:15:11;;;;;;;25.00;10.38;;;;;;;9.45;100.00;100989.66;5212911;28;20028;-80
2023/03/22 00:17:43;;;;;;;28.20;10.82;;;;;;;9.48;100.00;100986.66;5212352;28;20036;-80
2023/03/22 00:20:14;;;;;;;28.45;11.70;;;;;;;9.53;100.00;100978.16;5212510;28;20498;-80
2023/03/22 00:22:45;;;;;;;19.63;9.82;;;;;;;9.49;100.00;100982.19;5197632;28;20079;-80
2023/03/22 00:25:15;;;;;;;28.52;11.15;;;;;;;9.39;100.00;100976.03;5210559;28;20104;-80
2023/03/22 00:27:46;;;;;;;27.95;11.20;;;;;;;9.42;100.00;100967.72;5212139;28;20030;-79
2023/03/22 00:30:17;;;;;;;22.70;10.88;;;;;;;9.39;100.00;100968.88;5212573;28;20028;-79
2023/03/22 00:32:47;;;;;;;22.33;11.13;;;;;;;9.39;100.00;100962.66;5210154;28;20024;-79
2023/03/22 00:35:18;;;;;;;28.73;11.60;;;;;;;9.43;100.00;100964.88;5211608;28;20017;-80
2023/03/22 00:37:50;;;;;;;26.48;10.90;;;;;;;9.44;100.00;100958.53;5210787;28;20041;-79
2023/03/22 00:40:20;;;;;;;23.17;10.38;;;;;;;9.39;100.00;100941.22;5211084;28;20036;-79
2023/03/22 00:42:51;;;;;;;23.55;10.73;;;;;;;9.36;100.00;100942.41;5212220;28;20021;-79
2023/03/22 00:45:21;;;;;;;19.42;10.25;;;;;;;9.32;100.00;100943.69;5211421;28;20033;-79
2023/03/22 00:47:52;;;;;;;23.38;10.88;;;;;;;9.37;100.00;100938.72;5211313;28;20059;-80
2023/03/22 00:50:22;;;;;;;21.02;10.73;;;;;;;9.36;100.00;100944.25;5211407;28;20067;-80
2023/03/22 00:52:53;;;;;;;18.67;9.57;;;;;;;9.30;100.00;100935.00;5211062;28;20485;-80
2023/03/22 00:55:23;;;;;;;21.45;9.60;;;;;;;9.31;100.00;100936.66;5211646;28;20075;-80
2023/03/22 00:57:54;;;;;;;19.13;10.45;;;;;;;9.32;100.00;100938.34;5211301;28;20029;-80
2023/03/22 01:00:25;;;;;;;21.92;9.52;;;;;;;9.29;100.00;100938.69;5212097;28;20072;-80
2023/03/22 01:02:58;;;;;;;26.80;10.95;;;;;;;9.33;100.00;100926.63;5210946;28;20045;-80
2023/03/22 01:05:32;;;;;;;18.60;9.27;;;;;;;9.28;100.00;100913.72;5211836;28;20025;-80
2023/03/22 01:08:07;;;;;;;17.83;9.80;;;;;;;9.30;100.00;100910.91;5211209;28;20036;-80
2023/03/22 01:10:39;;;;;;;22.05;9.70;;;;;;;9.32;100.00;100908.91;5211189;28;20021;-80
2023/03/22 01:13:10;;;;;;;18.02;10.15;;;;;;;9.30;100.00;100909.06;5211687;28;20287;-80
2023/03/22 01:15:41;;;;;;;19.02;9.07;;;;;;;9.35;100.00;100900.56;5211318;28;20533;-80
2023/03/22 01:18:11;;;;;;;22.70;9.38;;;;;;;9.36;100.00;100896.03;5211297;28;20060;-79
2023/03/22 01:20:42;;;;;;;24.02;9.45;;;;;;;9.30;100.00;100887.66;5207646;28;20113;-80
2023/03/22 01:23:12;;;;;;;14.60;8.80;;;;;;;9.31;100.00;100883.13;5201837;28;20021;-80
2023/03/22 01:25:43;;;;;;;18.55;8.65;;;;;;;9.28;100.00;100880.75;5211730;28;20017;-80
2023/03/22 01:28:13;;;;;;;16.48;8.85;;;;;;;9.36;100.00;100864.75;5212310;28;20028;-80
2023/03/22 01:30:44;;;;;;;16.40;7.85;;;;;;;9.34;100.00;100862.25;5211978;28;20032;-80
2023/03/22 01:33:14;;;;;;;14.95;7.28;;;;;;;9.31;100.00;100853.69;5213603;28;20041;-80
2023/03/22 01:35:45;;;;;;;19.17;8.48;;;;;;;9.32;100.00;100855.34;5213284;28;20021;-79
2023/03/22 01:38:15;;;;;;;18.90;7.97;;;;;;;9.38;100.00;100854.72;5213044;28;20029;-80
2023/03/22 01:40:46;;;;;;;15.85;7.60;;;;;;;9.49;100.00;100853.63;5212943;28;20389;-79
2023/03/22 01:43:17;;;;;;;17.25;7.43;;;;;;;9.51;100.00;100848.94;5213503;28;20021;-79
2023/03/22 01:45:50;;;;;;;15.02;7.25;;;;;;;9.49;100.00;100848.28;5213617;28;20390;-79
2023/03/22 01:48:53;;;;;;;19.70;7.40;;;;;;;9.44;100.00;100855.91;5212507;28;20025;-79
2023/03/22 01:51:24;;;;;;;16.17;7.07;;;;;;;9.42;100.00;100852.56;5204187;28;20073;-80
2023/03/22 01:54:00;;;;;;;16.98;7.43;;;;;;;9.41;100.00;100845.53;5203095;28;20057;-80
2023/03/22 01:56:34;;;;;;;14.85;6.28;;;;;;;9.41;100.00;100843.69;5202311;28;20025;-80
2023/03/22 01:59:08;;;;;;;16.23;7.05;;;;;;;9.44;100.00;100838.03;5203244;28;20079;-79
2023/03/22 02:01:39;;;;;;;13.55;6.55;;;;;;;9.42;100.00;100840.00;5203214;28;20709;-80
2023/03/22 02:04:18;;;;;;;14.90;6.47;;;;;;;9.46;100.00;100841.38;5203835;28;20111;-80
2023/03/22 02:06:53;;;;;;;16.52;7.28;;;;;;;9.43;100.00;100840.84;5203262;28;20405;-79
2023/03/22 02:09:23;;;;;;;14.75;6.28;;;;;;;9.40;100.00;100834.00;5203868;28;20025;-79
2023/03/22 02:12:19;;;;;;;16.17;6.18;;;;;;;9.40;100.00;100835.84;5202029;28;20071;-79
2023/03/22 02:15:08;;;;;;;11.55;5.95;;;;;;;9.41;100.00;100840.19;5192208;28;20025;-79
2023/03/22 02:18:10;;;;;;;12.18;6.70;;;;;;;9.41;100.00;100837.50;5207349;28;20029;-79
2023/03/22 02:21:18;;;;;;;11.73;5.65;;;;;;;9.38;100.00;100822.59;5207651;28;20026;-80
2023/03/22 02:23:59;;;;;;;19.63;6.18;;;;;;;9.34;100.00;100824.75;5208209;28;20044;-80
2023/03/22 02:27:08;;;;;;;18.00;5.63;;;;;;;9.35;100.00;100820.25;5208626;28;20034;-79
2023/03/22 02:29:58;;;;;;;13.32;5.47;;;;;;;9.25;100.00;100814.16;5208369;28;20021;-79
2023/03/22 02:32:59;;;;;;;15.38;5.50;;;;;;;9.30;100.00;100817.19;5209211;28;20078;-79
2023/03/22 02:35:52;;;;;;;14.15;5.20;;;;;;;9.36;100.00;100811.22;5209611;28;20429;-79
2023/03/22 02:38:53;;;;;;;11.68;4.60;;;;;;;9.47;100.00;100796.69;5208742;28;20136;-80
2023/03/22 02:42:03;;;;;;;10.35;4.47;;;;;;;9.62;100.00;100802.28;5208957;28;20048;-79
2023/03/22 02:44:35;;;;;;;15.40;6.13;;;;;;;9.62;100.00;100799.59;5206925;28;20041;-80
2023/03/22 02:47:37;;;;;;;10.60;4.10;;;;;;;9.68;100.00;100797.13;5206261;28;20116;-79
2023/03/22 02:50:30;;;;;;;10.75;4.25;;;;;;;9.70;100.00;100780.91;5206449;28;20029;-80
2023/03/22 02:53:11;;;;;;;17.52;4.72;;;;;;;9.70;100.00;100779.06;5207015;28;20437;-79
2023/03/22 02:55:55;;;;;;;11.02;4.25;;;;;;;9.71;100.00;100766.50;5207345;28;20108;-80
2023/03/22 02:58:44;;;;;;;11.85;4.35;;;;;;;9.76;100.00;100762.31;5206931;28;20028;-80
2023/03/22 03:01:24;;;;;;;12.18;4.15;;;;;;;9.81;100.00;100751.97;5207265;28;20509;-80
2023/03/22 03:04:01;;;;;;;12.00;4.22;;;;;;;9.79;100.00;100755.81;5207946;28;20188;-80
2023/03/22 03:06:37;;;;;;;14.48;4.05;;;;;;;9.82;100.00;100759.00;5207608;28;20021;-79
2023/03/22 03:09:08;;;;;;;13.27;4.00;;;;;;;9.86;100.00;100760.34;5208224;28;20475;-80
2023/03/22 03:11:39;;;;;;;10.90;4.13;;;;;;;9.84;100.00;100754.31;5208363;28;20061;-80
2023/03/22 03:14:21;;;;;;;10.02;4.00;;;;;;;9.83;100.00;100752.63;5208615;28;20099;-80
2023/03/22 03:17:14;;;;;;;17.50;3.78;;;;;;;9.83;100.00;100751.78;5208558;28;20030;-79
2023/03/22 03:20:11;;;;;;;15.20;3.75;;;;;;;9.82;100.00;100759.00;5197162;28;20029;-79
2023/03/22 03:23:08;;;;;;;19.00;3.80;;;;;;;9.85;100.00;100760.50;5194534;28;20394;-79
2023/03/22 03:26:02;;;;;;;16.92;3.20;;;;;;;9.84;100.00;100764.22;5208896;28;20044;-79
2023/03/22 03:31:51;;;;;;;19.73;3.60;;;;;;;9.77;100.00;100761.31;5209923;28;20072;-80
2023/03/22 03:34:41;;;;;;;12.18;3.60;;;;;;;9.76;100.00;100764.16;5198462;28;20033;-80
2023/03/22 03:37:17;;;;;;;8.02;3.08;;;;;;;9.75;100.00;100757.13;5209063;28;20044;-79
2023/03/22 03:39:56;;;;;;;8.00;3.22;;;;;;;9.77;100.00;100766.69;5211029;28;20021;-80
2023/03/22 03:42:29;;;;;;;7.25;2.92;;;;;;;9.76;100.00;100753.44;5210489;28;20025;-80
2023/03/22 03:45:00;;;;;;;12.77;2.95;;;;;;;9.75;100.00;100752.63;5210449;28;20044;-80
2023/03/22 03:47:31;;;;;;;13.60;4.57;;;;;;;9.87;100.00;100758.50;5210300;28;20037;-80
2023/03/22 03:50:05;;;;;;;11.75;3.13;;;;;;;9.85;100.00;100755.16;5210445;28;20435;-80
2023/03/22 03:52:35;;;;;;;7.32;2.60;;;;;;;9.81;100.00;100756.47;5211069;28;20083;-80
2023/03/22 03:55:06;;;;;;;10.48;2.92;;;;;;;9.74;100.00;100763.47;5211675;28;20037;-81
2023/03/22 03:57:37;;;;;;;12.80;3.03;;;;;;;9.73;100.00;100759.97;5211235;28;20037;-79
2023/03/22 04:00:08;;;;;;;11.80;3.30;;;;;;;9.71;100.00;100759.28;5211642;28;20022;-80
2023/03/22 04:02:40;;;;;;;11.27;3.40;;;;;;;9.65;100.00;100775.19;5211794;28;20026;-80
2023/03/22 04:05:11;;;;;;;13.68;2.92;;;;;;;9.72;100.00;100757.44;5210375;28;20023;-80
2023/03/22 04:07:42;;;;;;;14.45;3.33;;;;;;;9.68;100.00;100750.75;5210618;28;20289;-80
2023/03/22 04:10:12;;;;;;;11.60;2.80;;;;;;;9.62;100.00;100762.09;5212393;28;20028;-80
2023/03/22 04:12:43;;;;;;;13.35;3.50;;;;;;;9.58;100.00;100749.03;5211768;28;20024;-80
2023/03/22 04:15:14;;;;;;;13.02;3.45;;;;;;;9.58;100.00;100750.88;5212813;28;20029;-80
2023/03/22 04:17:45;;;;;;;13.45;2.60;;;;;;;9.58;100.00;100750.88;5211606;28;20021;-80
2023/03/22 04:20:16;;;;;;;9.38;2.80;;;;;;;9.56;100.00;100753.72;5211597;28;20044;-80
2023/03/22 04:22:47;;;;;;;9.23;2.92;;;;;;;9.55;100.00;100761.94;5213461;28;20036;-80
2023/03/22 04:25:19;;;;;;;9.63;2.78;;;;;;;9.58;100.00;100757.06;5212557;28;20113;-80
2023/03/22 04:27:50;;;;;;;9.05;2.80;;;;;;;9.59;100.00;100761.44;5210900;28;20051;-79
2023/03/22 04:30:21;;;;;;;13.23;2.97;;;;;;;9.60;100.00;100760.44;5211173;28;20029;-80
2023/03/22 04:32:52;;;;;;;6.63;2.30;;;;;;;9.60;100.00;100755.09;5209743;28;20737;-80
2023/03/22 04:35:22;;;;;;;8.65;2.50;;;;;;;9.59;100.00;100749.91;5210991;28;20021;-80
2023/03/22 04:37:53;;;;;;;10.88;2.60;;;;;;;9.60;100.00;100746.22;5210413;28;20032;-80
2023/03/22 04:40:25;;;;;;;8.40;2.60;;;;;;;9.64;100.00;100754.72;5211323;28;20088;-80
2023/03/22 04:42:56;;;;;;;11.63;2.88;;;;;;;9.63;100.00;100761.94;5212435;28;20079;-80
2023/03/22 04:45:28;;;;;;;12.27;3.03;;;;;;;9.66;100.00;100761.63;5212022;28;20051;-80
2023/03/22 04:47:58;;;;;;;14.98;4.25;;;;;;;9.62;100.00;100752.22;5211782;28;20037;-80
2023/03/22 04:50:29;;;;;;;9.13;2.90;;;;;;;9.63;100.00;100755.75;5212121;28;20159;-80
2023/03/22 04:52:59;;;;;;;9.85;2.83;;;;;;;9.64;100.00;100739.53;5211895;28;20067;-80
2023/03/22 04:55:29;;;;;;;16.38;3.10;;;;;;;9.65;100.00;100749.25;5211128;28;20032;-80
2023/03/22 04:58:00;;;;;;;12.98;3.10;;;;;;;9.68;100.00;100750.75;5187300;28;20124;-80
2023/03/22 05:00:31;;;;;;;13.93;2.90;;;;;;;9.68;100.00;100748.91;5211905;28;20084;-80
2023/03/22 05:03:02;;;;;;;10.55;3.00;;;;;;;9.68;100.00;100758.78;5211580;28;20083;-80
2023/03/22 05:05:33;;;;;;;11.18;3.53;;;;;;;9.65;100.00;100749.25;5210467;28;20026;-80
2023/03/22 05:08:05;;;;;;;11.43;3.22;;;;;;;9.69;100.00;100760.44;5210442;28;20037;-80
2023/03/22 05:10:39;;;;;;;11.23;3.03;;;;;;;9.74;100.00;100758.97;5209462;28;20260;-80
2023/03/22 05:13:09;;;;;;;12.18;2.92;;;;;;;9.74;100.00;100755.44;5208086;28;20021;-80
2023/03/22 05:15:40;;;;;;;14.48;3.22;;;;;;;9.71;100.00;100753.09;5212661;28;20034;-80
2023/03/22 05:18:13;;;;;;;11.88;3.88;;;;;;;9.65;100.00;100751.91;5213341;28;20040;-80
2023/03/22 05:20:43;;;;;;;11.95;3.88;;;;;;;9.64;100.00;100744.88;5207539;28;20049;-80
2023/03/22 05:23:18;;;;;;;15.32;3.53;;;;;;;9.64;100.00;100749.38;5203224;28;20106;-80
2023/03/22 05:25:50;;;;;;;13.83;3.70;;;;;;;9.64;100.00;100752.94;5210012;28;20095;-80
2023/03/22 05:28:21;;;;;;;12.77;4.28;;;;;;;9.67;100.00;100746.38;5211387;28;20025;-80
2023/03/22 05:30:52;;;;;;;14.82;5.25;;;;;;;9.64;100.00;100757.41;5211326;28;20053;-80
2023/03/22 05:33:22;;;;;;;22.50;7.13;;;;;;;9.63;100.00;100745.03;5208900;28;20029;-80
2023/03/22 05:35:53;;;;;;;13.75;4.15;;;;;;;9.61;100.00;100753.25;5211396;28;20045;-80
2023/03/22 05:38:23;;;;;;;13.52;4.40;;;;;;;9.64;100.00;100760.09;5210149;28;20021;-81
2023/03/22 05:40:53;;;;;;;17.15;4.20;;;;;;;9.65;100.00;100753.75;5212206;28;20029;-80
2023/03/22 05:43:24;;;;;;;13.00;3.88;;;;;;;9.70;100.00;100764.81;5209221;28;20116;-80
2023/03/22 05:45:54;;;;;;;16.60;4.75;;;;;;;9.74;100.00;100766.16;5211370;28;20032;-80
2023/03/22 05:48:25;;;;;;;23.10;3.95;;;;;;;9.70;100.00;100762.97;5211740;28;20095;-80
2023/03/22 05:50:55;;;;;;;13.88;4.25;;;;;;;9.71;100.00;100761.97;5211286;28;20052;-80
2023/03/22 05:53:26;;;;;;;14.23;4.30;;;;;;;9.70;100.00;100764.81;5211424;28;20075;-80
2023/03/22 05:55:59;;;;;;;15.85;3.67;;;;;;;9.67;100.00;100760.63;5211709;28;20029;-80
2023/03/22 05:58:31;;;;;;;20.15;4.68;;;;;;;9.70;100.00;100759.47;5211219;28;20021;-80
2023/03/22 06:01:21;;;;;;;11.10;3.50;;;;;;;9.71;100.00;100755.78;5211907;28;20047;-80
2023/03/22 06:03:52;;;;;;;12.85;3.25;;;;;;;9.75;100.00;100762.50;5210643;28;20021;-80
2023/03/22 06:06:22;;;;;;;12.88;4.38;;;;;;;9.73;100.00;100764.47;5210156;28;20159;-81
2023/03/22 06:08:53;;;;;;;13.35;3.85;;;;;;;9.72;100.00;100754.78;5212898;28;20053;-80
2023/03/22 06:11:23;;;;;;;22.83;4.03;;;;;;;9.76;100.00;100761.50;5212809;28;20032;-80
2023/03/22 06:13:54;;;;;;;10.95;3.80;;;;;;;9.72;100.00;100755.59;5208534;28;20417;-81
2023/03/22 06:16:24;;;;;;;11.90;3.35;;;;;;;9.77;100.00;100753.28;5214149;28;20039;-81
2023/03/22 06:18:55;;;;;;;14.93;3.50;;;;;;;9.76;100.00;100751.63;5212233;28;20049;-80
2023/03/22 06:21:25;;;;;;;13.32;4.00;;;;;;;9.79;100.00;100750.47;5196667;28;20022;-79
2023/03/22 06:23:56;;;;;;;14.93;3.35;;;;;;;9.77;100.00;100757.81;5204565;28;20029;-78
2023/03/22 06:26:26;;;;;;;12.38;3.85;;;;;;;9.78;100.00;100759.47;5206647;28;20021;-78
2023/03/22 06:28:57;;;;;;;9.35;3.70;;;;;;;9.76;100.00;100759.66;5211882;28;20033;-79
2023/03/22 06:31:29;;;;;;;14.23;3.22;;;;;;;9.77;100.00;100766.69;5209829;28;20037;-78
2023/03/22 06:33:59;;;;;;;12.48;3.78;;;;;;;9.75;100.00;100763.34;5208038;28;20034;-79
2023/03/22 06:36:30;;;;;;;14.70;3.17;;;;;;;9.77;100.00;100758.63;5209703;28;20029;-79
2023/03/22 06:39:01;;;;;;;16.42;3.38;;;;;;;9.81;100.00;100769.88;5209510;28;20028;-78
2023/03/22 06:41:32;;;;;;;12.23;2.83;;;;;;;9.85;100.00;100768.56;5207666;28;20076;-78
2023/03/22 06:44:02;;;;;;;10.38;2.80;;;;;;;9.82;100.00;100758.16;5201856;28;20053;-79
2023/03/22 06:46:33;;;;;;;11.55;2.72;;;;;;;9.84;100.00;100756.16;5202504;28;20033;-78
2023/03/22 06:49:04;;;;;;;12.38;2.90;;;;;;;9.85;100.00;100755.16;5201351;28;20053;-78
2023/03/22 06:51:35;;;;;;;6.82;2.10;;;;;;;9.86;100.00;100748.78;5202332;28;20029;-78
2023/03/22 06:54:05;;;;;;;11.25;2.30;;;;;;;9.92;100.00;100747.28;5202774;28;20025;-78
2023/03/22 06:56:35;;;;;;;10.55;2.50;;;;;;;9.98;100.00;100755.50;5201888;28;20030;-78
2023/03/22 06:59:06;;;;;;;13.15;2.53;;;;;;;10.01;100.00;100768.59;5202594;28;20048;-78
2023/03/22 07:01:36;;;;;;;15.38;2.63;;;;;;;10.07;100.00;100764.41;5202437;28;20053;-78
2023/03/22 07:04:07;;;;;;;18.02;3.17;;;;;;;10.13;100.00;100756.53;5207095;28;20147;-78
2023/03/22 07:06:37;;;;;;;16.23;3.30;;;;;;;10.19;100.00;100746.16;5206186;28;20036;-78
2023/03/22 07:09:09;;;;;;;14.70;2.65;;;;;;;10.40;100.00;100745.72;5206668;28;20104;-77
2023/03/22 07:11:39;;;;;;;10.73;3.00;;;;;;;10.62;100.00;100747.72;5205959;28;20025;-78
2023/03/22 07:14:10;;;;;;;14.13;2.72;;;;;;;10.55;100.00;100758.28;5207101;28;20041;-78
2023/03/22 07:16:40;;;;;;;11.05;3.10;;;;;;;10.68;100.00;100749.69;5206070;28;20254;-78
2023/03/22 07:19:11;;;;;;;11.10;2.50;;;;;;;10.61;100.00;100740.66;5206545;28;20171;-78
2023/03/22 07:21:41;;;;;;;10.30;2.88;;;;;;;10.83;100.00;100749.84;5193608;28;20076;-77
2023/03/22 07:24:12;;;;;;;12.95;2.50;;;;;;;11.08;100.00;100754.16;5205273;28;20175;-78
2023/03/22 07:26:42;;;;;;;13.25;3.05;;;;;;;11.30;100.00;100735.66;5206158;28;20033;-78
2023/03/22 07:29:13;;;;;;;9.70;2.60;;;;;;;11.02;100.00;100744.13;5207096;28;20490;-78
2023/03/22 07:31:44;;;;;;;15.13;2.40;;;;;;;11.18;100.00;100737.84;5204640;28;20064;-78
2023/03/22 07:34:15;;;;;;;11.90;2.45;;;;;;;11.29;100.00;100744.69;5205696;28;20056;-78
2023/03/22 07:36:46;;;;;;;14.70;2.67;;;;;;;11.54;100.00;100746.28;5205082;28;20079;-77
2023/03/22 07:39:17;;;;;;;12.25;2.58;;;;;;;11.87;100.00;100748.84;5205736;28;20033;-77
2023/03/22 07:41:47;;;;;;;7.05;2.45;;;;;;;12.11;100.00;100751.38;5205558;28;20053;-78
2023/03/22 07:44:18;;;;;;;12.57;2.63;;;;;;;12.27;100.00;100742.34;5206546;28;20060;-78
2023/03/22 07:46:50;;;;;;;11.10;2.42;;;;;;;12.01;100.00;100749.94;5206382;28;20025;-78
2023/03/22 07:49:20;;;;;;;10.23;2.30;;;;;;;11.96;100.00;100755.84;5206297;28;20079;-78
2023/03/22 07:51:51;;;;;;;17.40;3.08;;;;;;;11.85;100.00;100748.19;5205405;28;20029;-77
2023/03/22 07:54:23;;;;;;;11.32;2.25;;;;;;;11.74;100.00;100760.13;5207920;28;20059;-77
2023/03/22 07:56:53;;;;;;;19.88;2.90;;;;;;;11.35;100.00;100752.94;5204820;28;20553;-78
2023/03/22 07:59:24;;;;;;;14.25;3.00;;;;;;;11.48;100.00;100764.94;5205236;28;20068;-78
2023/03/22 08:01:54;;;;;;;10.55;2.28;;;;;;;11.42;100.00;100769.16;5204749;28;20421;-77
2023/03/22 08:04:25;;;;;;;12.65;2.30;;;;;;;11.50;100.00;100779.06;5204857;28;20071;-78
2023/03/22 08:06:58;;;;;;;8.65;2.40;;;;;;;11.41;100.00;100787.13;5204575;28;20033;-77
2023/03/22 08:09:29;;;;;;;14.20;3.10;;;;;;;11.27;100.00;100777.09;5204616;28;20025;-79
2023/03/22 08:11:59;;;;;;;6.10;2.00;;;;;;;11.35;100.00;100771.72;5205378;28;20021;-79
2023/03/22 08:14:30;;;;;;;8.98;2.30;;;;;;;11.32;100.00;100757.78;5205616;28;20022;-79
2023/03/22 08:17:00;;;;;;;18.38;3.05;;;;;;;11.43;100.00;100764.63;5205485;28;20040;-79
2023/03/22 08:19:32;;;;;;;13.02;2.97;;;;;;;11.53;100.00;100762.56;5205924;28;20041;-79
2023/03/22 08:22:03;;;;;;;19.27;2.83;;;;;;;11.48;100.00;100762.25;5191431;28;20036;-79
2023/03/22 08:24:34;;;;;;;9.85;2.50;;;;;;;11.56;100.00;100763.06;5206519;28;20457;-79
2023/03/22 08:27:04;;;;;;;16.70;2.40;;;;;;;11.61;100.00;100771.44;5205639;28;20033;-79
2023/03/22 08:29:36;;;;;;;13.38;2.63;;;;;;;11.50;100.00;100763.78;5205902;28;20075;-79
2023/03/22 08:32:07;;;;;;;9.85;2.22;;;;;;;11.55;100.00;100760.56;5203134;28;20036;-79
2023/03/22 08:34:38;;;;;;;9.15;3.03;;;;;;;11.59;100.00;100765.41;5206188;28;20029;-79
2023/03/22 08:37:11;;;;;;;13.52;2.83;;;;;;;11.40;100.00;100760.47;5205808;28;20021;-79
2023/03/22 08:39:42;;;;;;;11.35;2.70;;;;;;;11.64;100.00;100762.19;5206806;28;20489;-79
2023/03/22 08:42:13;;;;;;;15.70;2.72;;;;;;;11.70;100.00;100755.28;5206947;28;20021;-79
2023/03/22 08:44:43;;;;;;;8.00;2.22;;;;;;;11.68;100.00;100755.44;5206720;28;20032;-79
2023/03/22 08:47:14;;;;;;;13.98;2.97;;;;;;;11.74;100.00;100748.53;5205929;28;20021;-79
2023/03/22 08:49:44;;;;;;;9.40;2.40;;;;;;;11.81;100.00;100752.22;5206903;28;20033;-79
2023/03/22 08:52:15;;;;;;;10.05;2.08;;;;;;;11.96;100.00;100742.41;5215282;28;20022;-79
2023/03/22 08:54:45;;;;;;;14.77;3.47;;;;;;;12.18;100.00;100744.25;5214225;28;20040;-79
2023/03/22 08:57:16;;;;;;;12.93;2.75;;;;;;;12.19;100.00;100751.31;5213616;28;20025;-79
2023/03/22 08:59:46;;;;;;;13.13;2.65;;;;;;;12.13;100.00;100743.97;5214209;28;20047;-79
2023/03/22 09:02:17;;;;;;;7.95;2.33;;;;;;;12.07;100.00;100735.78;5213718;28;20029;-80
2023/03/22 09:04:47;;;;;;;10.23;2.70;;;;;;;11.82;100.00;100738.63;5215460;28;20025;-79
2023/03/22 09:07:20;;;;;;;13.52;2.40;;;;;;;11.82;100.00;100737.78;5213660;28;20028;-79
2023/03/22 09:09:50;;;;;;;12.70;2.55;;;;;;;11.87;100.00;100743.47;5212170;28;20031;-82
2023/03/22 09:12:21;;;;;;;12.30;2.78;;;;;;;11.79;100.00;100743.47;5212171;28;20549;-81
2023/03/22 09:14:51;;;;;;;12.50;2.33;;;;;;;11.77;100.00;100735.59;5216001;28;20028;-80
2023/03/22 09:17:22;;;;;;;9.93;2.08;;;;;;;11.53;100.00;100731.16;5214227;28;20017;-79
2023/03/22 09:19:52;;;;;;;11.57;2.22;;;;;;;11.70;100.00;100736.47;5213562;28;20028;-80
2023/03/22 09:22:23;;;;;;;16.25;2.30;;;;;;;11.65;100.00;100732.47;5198486;28;20025;-82
2023/03/22 09:24:54;;;;;;;11.00;2.20;;;;;;;11.63;100.00;100739.03;5214175;28;20021;-80
2023/03/22 09:27:24;;;;;;;9.27;2.15;;;;;;;11.66;100.00;100730.63;5214269;28;20033;-80
2023/03/22 09:29:55;;;;;;;7.72;2.58;;;;;;;11.61;100.00;100724.94;5214261;28;20025;-80
2023/03/22 09:32:25;;;;;;;10.95;2.55;;;;;;;11.67;100.00;100711.63;5212423;28;20018;-79
2023/03/22 09:34:56;;;;;;;10.48;2.45;;;;;;;11.67;100.00;100733.13;5213233;28;20029;-79
2023/03/22 09:37:29;;;;;;;10.35;2.25;;;;;;;11.65;100.00;100731.63;5213286;28;20032;-79
2023/03/22 09:39:59;;;;;;;10.35;2.67;;;;;;;11.58;100.00;100723.41;5212948;28;20164;-78
2023/03/22 09:42:37;;;;;;;6.82;2.20;;;;;;;11.68;100.00;100724.03;5211741;28;20494;-79
2023/03/22 09:45:15;;;;;;;7.10;2.38;;;;;;;11.59;100.00;100732.31;5207272;28;20029;-78
2023/03/22 09:47:50;;;;;;;15.25;2.97;;;;;;;11.65;100.00;100732.47;5207599;28;20021;-79
2023/03/22 09:50:23;;;;;;;12.18;3.03;;;;;;;11.50;100.00;100734.22;5207970;28;20067;-78
2023/03/22 09:52:54;;;;;;;12.70;2.22;;;;;;;11.48;100.00;100728.19;5208288;28;20105;-78
2023/03/22 09:55:36;;;;;;;13.80;2.80;;;;;;;11.52;100.00;100724.13;5207103;28;20108;-80
2023/03/22 09:58:29;;;;;;;18.17;2.38;;;;;;;11.56;100.00;100728.16;5192574;28;20097;-78
2023/03/22 10:01:37;;;;;;;18.00;3.10;;;;;;;11.59;100.00;100729.63;5206941;28;20025;-79
2023/03/22 10:04:10;;;;;;;18.45;3.70;;;;;;;11.66;100.00;100734.16;5206173;28;20037;-78
2023/03/22 10:06:48;;;;;;;9.13;2.20;;;;;;;11.55;100.00;100731.03;5206635;28;20029;-79
2023/03/22 10:09:47;;;;;;;9.85;1.88;;;;;;;11.50;100.00;100741.47;5206421;28;20429;-79
2023/03/22 10:12:37;;;;;;;11.35;2.20;;;;;;;11.47;100.00;100739.94;5201250;28;20064;-80
2023/03/22 10:15:12;;;;;;;8.65;2.42;;;;;;;11.36;100.00;100740.31;5207874;28;20557;-80
2023/03/22 10:17:45;;;;;;;;;;;;;;;11.32;100.00;100728.25;5206721;28;20033;-80
2023/03/22 10:20:35;;;;;;;9.93;2.38;;;;;;;11.27;100.00;100727.94;5207326;28;19997;-79
2023/03/22 10:23:13;;;;;;;7.85;2.05;;;;;;;11.20;100.00;100726.97;5197185;28;20025;-80
2023/03/22 10:25:43;;;;;;;11.82;2.17;;;;;;;11.20;100.00;100717.06;5206893;28;20029;-79
2023/03/22 10:28:33;;;;;;;11.77;2.70;;;;;;;11.20;100.00;100725.13;5207232;28;20052;-80
2023/03/22 10:31:03;;;;;;;9.70;2.33;;;;;;;11.17;100.00;100719.25;5206834;28;20021;-79
2023/03/22 10:34:08;;;;;;;10.02;2.42;;;;;;;10.99;100.00;100722.97;5206117;28;20033;-79
2023/03/22 10:36:41;;;;;;;11.55;7.78;;;;;;;11.07;100.00;100722.13;5207259;28;20077;-81
2023/03/22 10:39:33;;;;;;;10.48;2.25;;;;;;;11.15;100.00;100722.13;5210298;28;20025;-79
2023/03/22 10:42:10;;;;;;;12.35;2.53;;;;;;;11.07;100.00;100720.28;5206262;28;20021;-79
2023/03/22 10:45:03;;;;;;;10.15;2.50;;;;;;;11.23;100.00;100718.53;5206095;28;20025;-79
2023/03/22 10:47:39;;;;;;;5.80;2.38;;;;;;;11.31;100.00;100721.22;5205825;28;20024;-80
2023/03/22 10:50:17;;;;;;;9.02;2.80;;;;;;;11.29;100.00;100717.84;5206737;28;20033;-79
2023/03/22 10:53:11;;;;;;;6.35;1.98;;;;;;;11.12;100.00;100711.72;5207794;28;20028;-79
2023/03/22 10:55:42;;;;;;;9.10;2.45;;;;;;;11.15;100.00;100712.22;5208396;28;20494;-79
2023/03/22 10:58:15;;;;;;;12.90;2.38;;;;;;;11.25;100.00;100709.31;5207745;28;20025;-79
2023/03/22 11:00:49;;;;;;;6.90;1.70;;;;;;;11.32;100.00;100721.03;5208542;28;20045;-79
2023/03/22 11:03:40;;;;;;;12.85;1.80;;;;;;;11.37;100.00;100712.44;5208626;28;20017;-79
2023/03/22 11:06:28;;;;;;;8.00;2.03;;;;;;;11.43;100.00;100721.66;5209144;28;20028;-79
2023/03/22 11:09:11;;;;;;;9.23;1.90;;;;;;;11.43;100.00;100713.59;5209106;28;20029;-79
2023/03/22 11:11:59;;;;;;;6.85;1.70;;;;;;;11.53;100.00;100706.16;5209226;28;20035;-79
2023/03/22 11:14:49;;;;;;;10.45;1.92;;;;;;;11.38;100.00;100720.31;5209595;28;20021;-79
2023/03/22 11:17:24;;;;;;;10.55;2.33;;;;;;;11.36;100.00;100702.72;5208988;28;20021;-79
2023/03/22 11:20:00;;;;;;;9.77;1.80;;;;;;;11.37;100.00;100699.84;5209844;28;20044;-79
2023/03/22 11:22:49;;;;;;;8.13;1.70;;;;;;;11.68;100.00;100699.84;5195452;28;20422;-79
2023/03/22 11:25:26;;;;;;;7.05;1.73;;;;;;;11.65;100.00;100704.78;5207943;28;20116;-80
2023/03/22 11:28:13;;;;;;;8.60;1.88;;;;;;;11.77;100.00;100708.72;5208486;28;20059;-80
2023/03/22 11:31:23;;;;;;;5.55;1.50;;;;;;;11.70;100.00;100705.06;5208930;28;20025;-80
2023/03/22 11:34:25;;;;;;;8.68;1.83;;;;;;;11.65;100.00;100697.53;5208149;28;20036;-81
2023/03/22 11:36:59;;;;;;;9.82;2.42;;;;;;;11.66;100.00;100693.00;5207756;28;20115;-81
2023/03/22 11:39:30;;;;;;;5.17;1.73;;;;;;;11.73;100.00;100691.25;5209104;28;20029;-81
2023/03/22 11:42:05;;;;;;;4.28;1.80;;;;;;;11.78;100.00;100690.72;5208342;28;20036;-80
2023/03/22 11:44:36;;;;;;;7.25;2.03;;;;;;;11.92;100.00;100693.53;5208372;28;20033;-82
2023/03/22 11:47:07;;;;;;;5.90;1.80;;;;;;;11.85;100.00;100691.75;5207654;28;20417;-81
2023/03/22 11:49:46;;;;;;;8.43;1.80;;;;;;;12.00;100.00;100700.72;5207774;28;20018;-81
2023/03/22 11:52:22;;;;;;;8.57;2.15;;;;;;;12.04;100.00;100698.47;5208063;28;20482;-81